createdAt,value
2022-09-04T00:02:13.342Z,10.68
2022-09-04T00:05:11.666Z,10.35
2022-09-04T00:08:05.850Z,12.68
2022-09-04T00:10:57.001Z,12.23
2022-09-04T00:14:09.713Z,13.23
2022-09-04T00:17:00.546Z,14.85
2022-09-04T00:19:59.758Z,9.38
2022-09-04T00:22:58.200Z,11.48
2022-09-04T00:25:50.685Z,11.93
2022-09-04T00:28:45.370Z,9.43
2022-09-04T00:31:31.523Z,11.50
2022-09-04T00:34:20.438Z,12.45
2022-09-04T00:37:08.833Z,15.55
2022-09-04T00:40:06.585Z,12.93
2022-09-04T00:43:10.074Z,11.95
2022-09-04T00:46:14.931Z,11.02
2022-09-04T00:49:11.773Z,10.80
2022-09-04T00:52:07.135Z,10.10
2022-09-04T00:55:13.937Z,13.02
2022-09-04T00:58:23.553Z,8.18
2022-09-04T01:01:13.109Z,12.95
2022-09-04T01:04:00.129Z,8.40
2022-09-04T01:06:54.343Z,11.73
2022-09-04T01:09:44.200Z,11.18
2022-09-04T01:12:36.543Z,10.65
2022-09-04T01:15:28.439Z,12.65
2022-09-04T01:18:33.096Z,8.07
2022-09-04T01:21:19.401Z,9.88
2022-09-04T01:24:05.490Z,12.55
2022-09-04T01:26:54.861Z,10.82
2022-09-04T01:30:01.289Z,9.27
2022-09-04T01:32:50.498Z,11.63
2022-09-04T01:35:45.258Z,12.05
2022-09-04T01:38:45.569Z,11.20
2022-09-04T01:42:04.041Z,10.07
2022-09-04T01:45:09.681Z,8.55
2022-09-04T01:47:57.721Z,8.88
2022-09-04T01:50:47.488Z,10.40
2022-09-04T01:53:37.278Z,9.20
2022-09-04T01:56:28.893Z,10.63
2022-09-04T01:59:26.690Z,8.75
2022-09-04T02:02:27.548Z,8.00
2022-09-04T02:05:19.010Z,9.40
2022-09-04T02:09:00.253Z,8.88
2022-09-04T02:11:51.943Z,10.68
2022-09-04T02:15:15.336Z,9.73
2022-09-04T02:18:26.788Z,5.25
2022-09-04T02:21:33.208Z,9.10
2022-09-04T02:24:25.481Z,12.68
2022-09-04T02:29:57.477Z,9.48
2022-09-04T02:32:48.191Z,10.20
2022-09-04T02:35:34.527Z,8.13
2022-09-04T02:38:20.549Z,8.18
2022-09-04T02:41:11.764Z,12.43
2022-09-04T02:44:01.104Z,7.63
2022-09-04T02:47:05.117Z,15.30
2022-09-04T02:50:10.163Z,8.60
2022-09-04T02:53:04.961Z,15.05
2022-09-04T02:56:09.986Z,10.30
2022-09-04T02:59:15.125Z,9.30
2022-09-04T03:02:02.733Z,11.25
2022-09-04T03:04:52.060Z,7.10
2022-09-04T03:07:41.222Z,6.50
2022-09-04T03:10:31.058Z,9.98
2022-09-04T03:13:39.428Z,9.77
2022-09-04T03:16:29.884Z,8.27
2022-09-04T03:19:31.817Z,10.35
2022-09-04T03:22:44.201Z,10.60
2022-09-04T03:25:30.344Z,13.63
2022-09-04T03:28:26.251Z,8.80
2022-09-04T03:31:31.085Z,8.00
2022-09-04T03:34:17.384Z,9.23
2022-09-04T03:37:14.277Z,9.30
2022-09-04T03:40:00.415Z,13.50
2022-09-04T03:43:10.378Z,10.15
2022-09-04T03:45:59.589Z,11.50
2022-09-04T03:48:58.344Z,9.23
2022-09-04T03:51:53.814Z,10.13
2022-09-04T03:54:51.581Z,10.98
2022-09-04T03:57:47.097Z,7.28
2022-09-04T04:00:41.520Z,11.80
2022-09-04T04:03:49.552Z,9.70
2022-09-04T04:06:35.798Z,11.48
2022-09-04T04:09:25.289Z,7.70
2022-09-04T04:12:20.694Z,11.02
2022-09-04T04:15:17.028Z,9.85
2022-09-04T04:18:13.446Z,8.75
2022-09-04T04:21:27.647Z,7.47
2022-09-04T04:24:29.991Z,8.80
2022-09-04T04:30:06.787Z,8.15
2022-09-04T04:33:04.101Z,10.20
2022-09-04T04:36:01.353Z,6.45
2022-09-04T04:39:06.374Z,9.32
2022-09-04T04:42:13.082Z,10.50
2022-09-04T04:45:26.649Z,7.15
2022-09-04T04:48:27.498Z,8.38
2022-09-04T04:51:16.277Z,8.20
2022-09-04T04:54:09.891Z,6.88
2022-09-04T04:56:59.848Z,12.70
2022-09-04T05:00:06.091Z,7.55
2022-09-04T05:03:15.515Z,7.85
2022-09-04T05:06:07.172Z,9.25
2022-09-04T05:09:34.763Z,9.98
2022-09-04T05:12:39.124Z,19.05
2022-09-04T05:16:07.831Z,8.57
2022-09-04T05:19:00.295Z,10.30
2022-09-04T05:24:44.130Z,9.15
2022-09-04T05:27:43.796Z,7.93
2022-09-04T05:30:48.839Z,7.78
2022-09-04T05:33:58.517Z,9.50
2022-09-04T05:36:50.732Z,10.45
2022-09-04T05:39:43.081Z,12.35
2022-09-04T05:45:37.198Z,11.80
2022-09-04T05:48:23.339Z,9.93
2022-09-04T05:51:16.927Z,12.63
2022-09-04T05:54:17.466Z,11.48
2022-09-04T05:57:06.920Z,15.75
2022-09-04T06:00:07.417Z,9.73
2022-09-04T06:02:59.425Z,12.63
2022-09-04T06:05:54.856Z,11.77
2022-09-04T06:08:52.991Z,10.52
2022-09-04T06:11:51.655Z,10.13
2022-09-04T06:15:03.966Z,8.48
2022-09-04T06:17:58.103Z,6.28
2022-09-04T06:20:59.648Z,6.05
2022-09-04T06:23:49.005Z,6.77
2022-09-04T06:26:50.263Z,6.90
2022-09-04T06:29:36.483Z,7.47
2022-09-04T06:32:41.095Z,7.00
2022-09-04T06:35:34.384Z,10.10
2022-09-04T06:38:36.801Z,8.25
2022-09-04T06:44:19.714Z,8.32
2022-09-04T06:47:12.271Z,8.20
2022-09-04T06:50:17.155Z,7.10
2022-09-04T06:53:13.109Z,6.28
2022-09-04T06:56:14.766Z,9.25
2022-09-04T06:59:09.633Z,9.27
2022-09-04T07:02:23.799Z,9.05
2022-09-04T07:05:25.696Z,7.22
2022-09-04T07:08:14.856Z,4.78
2022-09-04T07:11:20.493Z,6.35
2022-09-04T07:14:30.886Z,11.15
2022-09-04T07:17:35.767Z,6.47
2022-09-04T07:20:26.015Z,5.65
2022-09-04T07:23:36.088Z,6.70
2022-09-04T07:26:28.651Z,7.75
2022-09-04T07:29:28.513Z,4.57
2022-09-04T07:32:29.335Z,8.32
2022-09-04T07:35:19.860Z,5.95
2022-09-04T07:38:25.855Z,6.05
2022-09-04T07:41:47.984Z,8.57
2022-09-04T07:44:45.052Z,4.30
2022-09-04T07:47:38.387Z,6.00
2022-09-04T07:50:35.609Z,4.97
2022-09-04T07:53:33.018Z,4.43
2022-09-04T07:56:30.342Z,5.70
2022-09-04T07:59:34.770Z,6.15
2022-09-04T08:02:37.065Z,3.92
2022-09-04T08:05:41.639Z,4.20
2022-09-04T08:08:46.040Z,3.47
2022-09-04T08:11:35.214Z,4.40
2022-09-04T08:14:22.126Z,4.20
2022-09-04T08:17:24.601Z,4.85
2022-09-04T08:20:20.157Z,10.27
2022-09-04T08:23:23.510Z,6.13
2022-09-04T08:26:23.617Z,7.13
2022-09-04T08:29:21.158Z,8.85
2022-09-04T08:32:10.560Z,3.58
2022-09-04T08:35:15.507Z,4.25
2022-09-04T08:38:20.717Z,4.10
2022-09-04T08:41:10.150Z,8.70
2022-09-04T08:44:15.065Z,4.90
2022-09-04T08:47:11.914Z,8.50
2022-09-04T08:50:08.213Z,3.72
2022-09-04T08:52:54.553Z,7.45
2022-09-04T08:55:59.661Z,5.40
2022-09-04T08:58:48.114Z,3.88
2022-09-04T09:01:53.127Z,4.22
2022-09-04T09:05:06.042Z,4.13
2022-09-04T09:07:55.253Z,4.65
2022-09-04T09:10:44.914Z,7.05
2022-09-04T09:13:40.696Z,2.22
2022-09-04T09:16:45.834Z,2.63
2022-09-04T09:19:43.312Z,3.85
2022-09-04T09:22:38.976Z,2.80
2022-09-04T09:25:35.027Z,7.65
2022-09-04T09:28:39.996Z,5.20
2022-09-04T09:31:27.155Z,3.53
2022-09-04T09:34:31.829Z,12.52
2022-09-04T09:37:23.782Z,3.95
2022-09-04T09:40:32.087Z,5.68
2022-09-04T09:43:47.858Z,6.10
2022-09-04T09:47:01.786Z,4.82
2022-09-04T09:50:03.248Z,4.22
2022-09-04T09:52:49.580Z,3.47
2022-09-04T09:55:38.734Z,7.07
2022-09-04T09:58:31.113Z,3.97
2022-09-04T10:01:26.537Z,5.95
2022-09-04T10:04:17.627Z,2.78
2022-09-04T10:07:14.557Z,2.75
2022-09-04T10:10:06.609Z,4.28
2022-09-04T10:13:14.941Z,3.55
2022-09-04T10:16:12.391Z,3.20
2022-09-04T10:19:07.510Z,8.98
2022-09-04T10:21:56.866Z,2.47
2022-09-04T10:25:02.390Z,3.58
2022-09-04T10:27:48.218Z,4.05
2022-09-04T10:31:09.750Z,3.42
2022-09-04T10:34:07.898Z,4.65
2022-09-04T10:37:07.757Z,5.18
2022-09-04T10:40:15.485Z,7.43
2022-09-04T10:43:10.209Z,4.15
2022-09-04T10:46:04.140Z,6.13
2022-09-04T10:49:08.940Z,8.60
2022-09-04T10:52:13.340Z,3.00
2022-09-04T10:55:02.842Z,4.53
2022-09-04T10:58:21.240Z,2.45
2022-09-04T11:01:23.095Z,9.80
2022-09-04T11:04:27.870Z,6.00
2022-09-04T11:07:32.239Z,3.95
2022-09-04T11:10:18.615Z,5.70
2022-09-04T11:13:30.637Z,7.72
2022-09-04T11:16:23.521Z,7.45
2022-09-04T11:19:22.421Z,5.57
2022-09-04T11:22:27.538Z,5.35
2022-09-04T11:25:22.827Z,5.03
2022-09-04T11:28:20.526Z,5.35
2022-09-04T11:31:21.054Z,4.28
2022-09-04T11:34:10.551Z,2.95
2022-09-04T11:37:18.214Z,5.63
2022-09-04T11:40:09.574Z,4.45
2022-09-04T11:43:05.326Z,4.82
2022-09-04T11:46:10.397Z,3.00
2022-09-04T11:48:56.683Z,4.10
2022-09-04T11:52:02.326Z,4.18
2022-09-04T11:55:06.775Z,4.63
2022-09-04T11:58:08.729Z,2.67
2022-09-04T12:01:04.198Z,3.75
2022-09-04T12:04:14.984Z,3.85
2022-09-04T12:07:13.595Z,4.10
2022-09-04T12:10:08.267Z,7.10
2022-09-04T12:12:58.059Z,3.67
2022-09-04T12:16:03.321Z,3.45
2022-09-04T12:18:51.901Z,3.97
2022-09-04T12:21:48.944Z,3.60
2022-09-04T12:24:48.657Z,3.10
2022-09-04T12:27:53.442Z,3.22
2022-09-04T12:30:51.564Z,7.10
2022-09-04T12:33:42.823Z,2.50
2022-09-04T12:36:28.885Z,3.45
2022-09-04T12:39:33.860Z,3.55
2022-09-04T12:42:23.484Z,4.00
2022-09-04T12:45:33.079Z,3.17
2022-09-04T12:48:39.322Z,3.83
2022-09-04T12:51:29.313Z,3.17
2022-09-04T12:54:44.036Z,3.40
2022-09-04T12:57:48.947Z,3.67
2022-09-04T13:00:48.685Z,7.47
2022-09-04T13:03:41.410Z,3.03
2022-09-04T13:06:27.550Z,2.67
2022-09-04T13:09:35.457Z,2.95
2022-09-04T13:12:32.122Z,2.60
2022-09-04T13:15:34.726Z,3.42
2022-09-04T13:18:38.182Z,3.38
2022-09-04T13:21:43.481Z,3.45
2022-09-04T13:24:44.551Z,3.45
2022-09-04T13:27:30.674Z,2.90
2022-09-04T13:30:24.619Z,3.03
2022-09-04T13:33:16.809Z,4.13
2022-09-04T13:36:10.746Z,3.17
2022-09-04T13:38:59.501Z,2.65
2022-09-04T13:41:54.454Z,2.20
2022-09-04T13:44:58.894Z,5.18
2022-09-04T13:47:51.459Z,2.40
2022-09-04T13:50:37.476Z,3.83
2022-09-04T13:53:29.451Z,2.20
2022-09-04T13:56:19.675Z,3.85
2022-09-04T13:59:09.822Z,3.97
2022-09-04T14:02:00.033Z,4.03
2022-09-04T14:04:49.388Z,3.03
2022-09-04T14:07:36.618Z,4.43
2022-09-04T14:10:31.868Z,5.60
2022-09-04T14:13:38.067Z,3.03
2022-09-04T14:16:24.402Z,4.93
2022-09-04T14:19:16.227Z,6.40
2022-09-04T14:22:21.968Z,5.20
2022-09-04T14:25:17.457Z,4.38
2022-09-04T14:28:24.546Z,6.65
2022-09-04T14:31:13.645Z,6.32
2022-09-04T14:34:15.160Z,6.53
2022-09-04T14:37:20.237Z,4.38
2022-09-04T14:40:18.464Z,5.35
2022-09-04T14:43:12.769Z,3.95
2022-09-04T14:46:10.265Z,7.45
2022-09-04T14:49:02.102Z,4.93
2022-09-04T14:51:49.484Z,5.85
2022-09-04T14:54:58.262Z,3.75
2022-09-04T14:57:50.274Z,10.55
2022-09-04T15:01:14.988Z,3.10
2022-09-04T15:04:01.172Z,4.03
2022-09-04T15:07:12.980Z,4.20
2022-09-04T15:10:13.941Z,5.20
2022-09-04T15:13:22.282Z,3.28
2022-09-04T15:16:15.997Z,4.22
2022-09-04T15:19:05.147Z,4.55
2022-09-04T15:21:57.481Z,3.97
2022-09-04T15:24:52.357Z,6.60
2022-09-04T15:27:50.065Z,4.93
2022-09-04T15:30:43.677Z,5.72
2022-09-04T15:33:31.763Z,6.85
2022-09-04T15:36:37.986Z,4.28
2022-09-04T15:39:34.761Z,4.68
2022-09-04T15:42:55.950Z,4.25
2022-09-04T15:46:13.023Z,4.43
2022-09-04T15:49:20.918Z,6.90
2022-09-04T15:52:33.902Z,6.57
2022-09-04T15:55:51.501Z,5.68
2022-09-04T15:59:24.927Z,6.05
2022-09-04T16:02:29.085Z,5.00
2022-09-04T16:05:50.323Z,5.32
2022-09-04T16:08:48.509Z,5.97
2022-09-04T16:11:43.056Z,4.43
2022-09-04T16:23:58.081Z,5.88
2022-09-04T16:27:11.415Z,5.43
2022-09-04T16:34:06.236Z,5.45
2022-09-04T16:37:17.267Z,5.63
2022-09-04T16:43:47.376Z,4.97
2022-09-04T16:46:51.406Z,5.55
2022-09-04T17:00:59.955Z,5.65
2022-09-04T17:04:25.230Z,7.07
2022-09-04T17:07:37.922Z,6.30
2022-09-04T17:10:52.030Z,5.22
2022-09-04T17:14:18.283Z,10.70
2022-09-04T17:17:30.105Z,6.45
2022-09-04T17:23:35.412Z,4.03
2022-09-04T17:28:54.383Z,3.50
2022-09-04T17:29:16.883Z,4.47
2022-09-04T17:31:45.632Z,4.00
2022-09-04T17:40:36.171Z,6.40
2022-09-04T17:40:36.455Z,5.60
2022-09-04T17:41:58.103Z,5.00
2022-09-04T17:44:46.838Z,9.00
2022-09-04T17:47:34.186Z,4.15
2022-09-04T17:50:22.758Z,4.45
2022-09-04T17:53:20.030Z,6.43
2022-09-04T17:56:28.889Z,7.95
2022-09-04T17:59:33.447Z,4.78
2022-09-04T18:02:25.476Z,4.53
2022-09-04T18:05:19.448Z,3.88
2022-09-04T18:08:12.118Z,6.65
2022-09-04T18:11:20.790Z,4.60
2022-09-04T18:14:18.628Z,4.80
2022-09-04T18:17:12.563Z,4.72
2022-09-04T18:20:10.541Z,4.13
2022-09-04T18:22:59.797Z,3.85
2022-09-04T18:25:54.300Z,4.88
2022-09-04T18:28:48.632Z,4.82
2022-09-04T18:37:07.895Z,9.85
2022-09-04T18:37:25.323Z,5.78
2022-09-04T18:44:56.748Z,5.38
2022-09-04T18:50:25.839Z,5.63
2022-09-04T18:50:52.243Z,6.50
2022-09-04T18:53:51.426Z,6.13
2022-09-04T18:56:45.179Z,6.68
2022-09-04T18:59:34.789Z,3.67
2022-09-04T19:02:20.791Z,3.13
2022-09-04T19:05:08.912Z,3.58
2022-09-04T19:08:03.333Z,4.28
2022-09-04T19:10:58.160Z,4.00
2022-09-04T19:14:10.273Z,4.00
2022-09-04T19:19:46.422Z,3.63
2022-09-04T19:22:39.211Z,7.30
2022-09-04T19:25:30.589Z,4.63
2022-09-04T19:28:22.333Z,5.05
2022-09-04T19:31:11.829Z,6.45
2022-09-04T19:34:02.858Z,4.43
2022-09-04T19:36:55.497Z,5.90
2022-09-04T19:46:02.281Z,10.50
2022-09-04T19:46:12.082Z,4.50
2022-09-04T19:46:48.508Z,4.68
2022-09-04T19:53:19.943Z,5.78
2022-09-04T19:53:31.770Z,3.60
2022-09-04T19:56:12.163Z,5.38
2022-09-04T19:59:18.716Z,5.15
2022-09-04T20:02:22.798Z,5.63
2022-09-04T20:05:29.146Z,3.97
2022-09-04T20:08:25.994Z,4.35
2022-09-04T20:11:34.530Z,8.93
2022-09-04T20:14:26.281Z,3.95
2022-09-04T20:17:24.789Z,4.55
2022-09-04T20:20:31.065Z,4.15
2022-09-04T20:23:33.990Z,4.47
2022-09-04T20:26:26.632Z,4.72
2022-09-04T20:29:22.477Z,2.73
2022-09-04T20:32:26.756Z,5.45
2022-09-04T20:35:33.076Z,3.50
2022-09-04T20:38:34.794Z,3.25
2022-09-04T20:41:59.437Z,2.67
2022-09-04T20:46:03.636Z,4.00
2022-09-04T20:52:58.058Z,3.33
2022-09-04T20:52:59.849Z,4.05
2022-09-04T20:54:41.558Z,3.35
2022-09-04T21:03:13.055Z,3.38
2022-09-04T21:03:13.968Z,4.13
2022-09-04T21:06:48.612Z,3.65
2022-09-04T21:09:54.881Z,3.88
2022-09-04T21:13:14.264Z,4.85
2022-09-04T21:16:05.365Z,3.53
2022-09-04T21:19:28.336Z,2.28
2022-09-04T21:22:34.023Z,3.25
2022-09-04T21:25:20.098Z,5.18
2022-09-04T21:28:24.918Z,2.95
2022-09-04T21:31:20.109Z,2.90
2022-09-04T21:34:08.904Z,2.85
2022-09-04T21:37:05.692Z,2.28
2022-09-04T21:40:25.872Z,6.10
2022-09-04T21:43:35.444Z,4.88
2022-09-04T21:46:31.761Z,4.30
2022-09-04T21:49:26.678Z,8.20
2022-09-04T21:52:12.850Z,4.93
2022-09-04T21:58:19.916Z,4.90
2022-09-04T22:02:27.650Z,4.28
2022-09-04T22:02:43.089Z,4.35
2022-09-04T22:05:23.022Z,5.55
2022-09-04T22:13:26.574Z,4.05
2022-09-04T22:13:43.609Z,4.40
2022-09-04T22:14:54.509Z,4.70
2022-09-04T22:17:59.590Z,4.90
2022-09-04T22:20:54.128Z,4.47
2022-09-04T22:23:48.944Z,5.45
2022-09-04T22:26:48.506Z,4.20
2022-09-04T22:29:58.471Z,3.80
2022-09-04T22:32:44.365Z,4.25
2022-09-04T22:35:36.490Z,7.60
2022-09-04T22:38:31.413Z,5.95
2022-09-04T22:41:23.602Z,4.72
2022-09-04T22:44:12.872Z,6.65
2022-09-04T22:47:28.401Z,5.15
2022-09-04T22:50:48.914Z,3.58
2022-09-04T22:53:36.760Z,4.78
2022-09-04T22:56:29.284Z,7.75
2022-09-04T22:59:26.941Z,12.20
2022-09-04T23:02:45.966Z,6.30
2022-09-04T23:05:45.229Z,5.28
2022-09-04T23:13:43.117Z,4.57
2022-09-04T23:14:02.501Z,4.97
2022-09-04T23:15:14.537Z,3.42
2022-09-04T23:20:21.090Z,6.57
2022-09-04T23:26:36.684Z,5.50
2022-09-04T23:26:43.218Z,3.80
2022-09-04T23:28:51.724Z,4.15
2022-09-04T23:31:38.391Z,3.92
2022-09-04T23:34:44.084Z,5.63
2022-09-04T23:38:00.433Z,7.18
2022-09-04T23:40:50.902Z,3.88
2022-09-04T23:43:55.990Z,4.15
2022-09-04T23:47:06.037Z,2.67
2022-09-04T23:49:52.268Z,3.25
2022-09-04T23:52:59.891Z,3.20
2022-09-04T23:55:58.363Z,2.28
2022-09-04T23:59:03.195Z,6.72
